Crumpsall, United Kingdom
Current Conditions -  °F | °C
As of 11:20 PM on Thursday 18 Dec 2014 (Local Time) from EGCC Reporting Station
Light Rain Light Rain  
Wind Chill: 43°   Ceiling: 600
Heat Index: 48°   Visibility: 2.1mi
Dew Point: 46°   Wind: 12mph
Humidity: 93%   Direction: 280°W
Pressure: 29.65"   Gusts: NA
Location:  53.52°N, 2.24°W
Report Text: EGCC 182320Z 28010KT 3400 -RA SCT005 BKN006 BKN010 09/08 Q1004
Loading
Personal Weather Stations






























Interactive Weather Map New forecast layout! Learn more

10-Day Weather Forecast

Advertisements
Track Severe Weather on mobile